Time;durP1;ratioP1;P1;durP2;ratioP2;P2;SDS_P1;SDS_P2;PMS_P1;PMS_P2;Temp;Humidity;BMP_temperature;BMP_pressure;BME280_temperature;BME280_humidity;BME280_pressure;Samples;Min_cycle;Max_cycle;Signal;HPM_P1;HPM_P2
2022/08/01 00:00:06;;;;;;;;;;;;;;;;;;5053607;28;928;-71
2022/08/01 00:02:33;;;;;;;;;;;;;;;;;;5052991;28;1404;-71
2022/08/01 00:04:59;;;;;;;;;;;;;;;;;;5053479;28;1122;-70
2022/08/01 00:07:27;;;;;;;;;;;;;;;;;;5053656;28;925;-71
2022/08/01 00:09:53;;;;;;;;;;;;;;;;;;5053332;28;1921;-70
2022/08/01 00:12:19;;;;;;;;;;;;;;;;;;5053376;28;1100;-70
2022/08/01 00:14:45;;;;;;;;;;;;;;;;;;5053400;28;1368;-70
2022/08/01 00:17:12;;;;;;;;;;;;;;;;;;5053341;28;1101;-70
2022/08/01 00:19:38;;;;;;;;;;;;;;;;;;5053011;28;980;-71
2022/08/01 00:22:04;;;;;;;;;;;;;;;;;;5052784;28;1051;-71
2022/08/01 00:24:32;;;;;;;;;;;;;;;;;;5053231;28;1328;-70
2022/08/01 00:26:58;;;;;;;;;;;;;;;;;;5053110;28;1091;-70
2022/08/01 00:29:24;;;;;;;;;;;;;;;;;;5051829;28;1921;-70
2022/08/01 00:31:50;;;;;;;;;;;;;;;;;;5052559;28;997;-71
2022/08/01 00:34:16;;;;;;;;;;;;;;;;;;5052935;28;1286;-71
2022/08/01 00:36:42;;;;;;;;;;;;;;;;;;5052824;28;806;-70
2022/08/01 00:39:08;;;;;;;;;;;;;;;;;;5052960;28;993;-70
2022/08/01 00:41:36;;;;;;;;;;;;;;;;;;5052748;28;1144;-70
2022/08/01 00:44:03;;;;;;;;;;;;;;;;;;5058256;28;2221;-70
2022/08/01 00:46:30;;;;;;;;;;;;;;;;;;5072645;28;1042;-71
2022/08/01 00:48:56;;;;;;;;;;;;;;;;;;5072423;28;1906;-70
2022/08/01 00:51:22;;;;;;;;;;;;;;;;;;5072298;28;897;-70
2022/08/01 00:53:49;;;;;;;;;;;;;;;;;;5071307;28;1328;-72
2022/08/01 00:56:15;;;;;;;;;;;;;;;;;;5072233;28;1024;-71
2022/08/01 00:58:43;;;;;;;;;;;;;;;;;;5072459;28;1111;-70
2022/08/01 01:01:09;;;;;;;;;;;;;;;;;;5072567;28;846;-70
2022/08/01 01:03:36;;;;;;;;;;;;;;;;;;5072265;28;1303;-71
2022/08/01 01:06:06;;;;;;;;;;;;;;;;;;5072496;28;919;-71
2022/08/01 01:08:33;;;;;;;;;;;;;;;;;;5072529;28;912;-71
2022/08/01 01:11:02;;;;;;;;;;;;;;;;;;5062247;28;1991;-71
2022/08/01 01:13:30;;;;;;;;;;;;;;;;;;5051541;28;1405;-71
2022/08/01 01:15:58;;;;;;;;;;;;;;;;;;5050608;28;1179;-71
2022/08/01 01:18:25;;;;;;;;;;;;;;;;;;5052132;28;996;-71
2022/08/01 01:20:52;;;;;;;;;;;;;;;;;;5052195;28;1256;-71
2022/08/01 01:23:33;;;;;;;;;;;;;;;;;;5051666;28;1305;-71
2022/08/01 01:26:05;;;;;;;;;;;;;;;;;;5043075;28;1311;-72
2022/08/01 01:28:34;;;;;;;;;;;;;;;;;;5051933;28;826;-70
2022/08/01 01:31:02;;;;;;;;;;;;;;;;;;5051352;28;1906;-70
2022/08/01 01:33:31;;;;;;;;;;;;;;;;;;5051454;28;1318;-71
2022/08/01 01:35:58;;;;;;;;;;;;;;;;;;5051785;28;657;-70
2022/08/01 01:38:25;;;;;;;;;;;;;;;;;;5050687;28;1355;-71
2022/08/01 01:40:51;;;;;;;;;;;;;;;;;;5051632;28;871;-71
2022/08/01 01:43:18;;;;;;;;;;;;;;;;;;5050859;28;1312;-70
2022/08/01 01:45:44;;;;;;;;;;;;;;;;;;5054261;28;1735;-71
2022/08/01 01:48:13;;;;;;;;;;;;;;;;;;5071266;28;1071;-71
2022/08/01 01:50:39;;;;;;;;;;;;;;;;;;5071437;28;1969;-71
2022/08/01 01:53:05;;;;;;;;;;;;;;;;;;5071308;28;1385;-70
2022/08/01 01:55:31;;;;;;;;;;;;;;;;;;5071411;28;1102;-71
2022/08/01 01:57:57;;;;;;;;;;;;;;;;;;5071333;28;1075;-70
2022/08/01 02:00:24;;;;;;;;;;;;;;;;;;5071174;28;948;-70
2022/08/01 02:02:51;;;;;;;;;;;;;;;;;;5070999;28;1333;-70
2022/08/01 02:05:18;;;;;;;;;;;;;;;;;;5070078;28;1193;-70
2022/08/01 02:07:45;;;;;;;;;;;;;;;;;;5071032;28;1047;-70
2022/08/01 02:10:11;;;;;;;;;;;;;;;;;;5070775;28;1979;-70
2022/08/01 02:12:38;;;;;;;;;;;;;;;;;;5069633;28;1407;-70
2022/08/01 02:15:05;;;;;;;;;;;;;;;;;;5071012;28;1075;-70
2022/08/01 02:17:32;;;;;;;;;;;;;;;;;;5071198;28;1117;-71
2022/08/01 02:19:58;;;;;;;;;;;;;;;;;;5071028;28;1063;-71
2022/08/01 02:22:27;;;;;;;;;;;;;;;;;;5070687;28;1075;-70
2022/08/01 02:24:56;;;;;;;;;;;;;;;;;;5070731;28;1335;-71
2022/08/01 02:27:23;;;;;;;;;;;;;;;;;;5071301;28;1110;-70
2022/08/01 02:29:51;;;;;;;;;;;;;;;;;;5069547;28;1979;-70
2022/08/01 02:32:17;;;;;;;;;;;;;;;;;;5070856;28;1136;-71
2022/08/01 02:34:44;;;;;;;;;;;;;;;;;;5071032;28;1244;-70
2022/08/01 02:37:10;;;;;;;;;;;;;;;;;;5071104;28;1066;-71
2022/08/01 02:39:37;;;;;;;;;;;;;;;;;;5070773;28;719;-70
2022/08/01 02:42:05;;;;;;;;;;;;;;;;;;5070073;28;1103;-70
2022/08/01 02:44:32;;;;;;;;;;;;;;;;;;5070643;28;1312;-70
2022/08/01 02:47:01;;;;;;;;;;;;;;;;;;5070556;28;1067;-70
2022/08/01 02:49:28;;;;;;;;;;;;;;;;;;5070767;28;1908;-70
2022/08/01 02:51:54;;;;;;;;;;;;;;;;;;5070350;28;1079;-70
2022/08/01 02:54:21;;;;;;;;;;;;;;;;;;5070837;28;1360;-70
2022/08/01 02:56:48;;;;;;;;;;;;;;;;;;5074150;28;880;-70
2022/08/01 02:59:16;;;;;;;;;;;;;;;;;;5074791;28;1091;-70
2022/08/01 03:01:42;;;;;;;;;;;;;;;;;;5074231;28;1145;-70
2022/08/01 03:04:08;;;;;;;;;;;;;;;;;;5074738;28;1310;-70
2022/08/01 03:06:34;;;;;;;;;;;;;;;;;;5074719;28;940;-69
2022/08/01 03:09:00;;;;;;;;;;;;;;;;;;5074590;28;1075;-70
2022/08/01 03:11:27;;;;;;;;;;;;;;;;;;5074392;28;2040;-70
2022/08/01 03:13:54;;;;;;;;;;;;;;;;;;5072875;28;1331;-69
2022/08/01 03:16:21;;;;;;;;;;;;;;;;;;5072361;28;1470;-70
2022/08/01 03:18:47;;;;;;;;;;;;;;;;;;5054417;28;814;-70
2022/08/01 03:21:14;;;;;;;;;;;;;;;;;;5053945;28;1016;-70
2022/08/01 03:23:40;;;;;;;;;;;;;;;;;;5054084;28;1334;-70
2022/08/01 03:26:06;;;;;;;;;;;;;;;;;;5068451;28;1503;-70
2022/08/01 03:28:32;;;;;;;;;;;;;;;;;;5067958;28;1410;-71
2022/08/01 03:31:00;;;;;;;;;;;;;;;;;;5072035;28;1921;-71
2022/08/01 03:33:26;;;;;;;;;;;;;;;;;;5073160;28;1448;-70
2022/08/01 03:35:54;;;;;;;;;;;;;;;;;;5072599;28;1380;-70
2022/08/01 03:38:22;;;;;;;;;;;;;;;;;;5071263;28;1541;-71
2022/08/01 03:40:49;;;;;;;;;;;;;;;;;;5071959;28;1432;-70
2022/08/01 03:43:17;;;;;;;;;;;;;;;;;;5073120;28;1377;-70
2022/08/01 03:45:45;;;;;;;;;;;;;;;;;;5072574;28;1398;-70
2022/08/01 03:48:14;;;;;;;;;;;;;;;;;;5074069;28;1137;-70
2022/08/01 03:50:40;;;;;;;;;;;;;;;;;;5073639;28;1917;-70
2022/08/01 03:53:06;;;;;;;;;;;;;;;;;;5073171;28;1408;-70
2022/08/01 03:55:33;;;;;;;;;;;;;;;;;;5072510;28;1472;-71
2022/08/01 03:57:59;;;;;;;;;;;;;;;;;;5073026;28;1141;-70
2022/08/01 04:00:25;;;;;;;;;;;;;;;;;;5073657;28;1055;-70
2022/08/01 04:02:51;;;;;;;;;;;;;;;;;;5071955;28;1502;-70
2022/08/01 04:05:19;;;;;;;;;;;;;;;;;;5073630;28;1161;-70
2022/08/01 04:07:46;;;;;;;;;;;;;;;;;;5072686;28;964;-70
2022/08/01 04:10:13;;;;;;;;;;;;;;;;;;5070048;28;1914;-70
2022/08/01 04:12:39;;;;;;;;;;;;;;;;;;5072960;28;1375;-71
2022/08/01 04:15:06;;;;;;;;;;;;;;;;;;5072924;28;941;-70
2022/08/01 04:17:32;;;;;;;;;;;;;;;;;;5073381;28;786;-70
2022/08/01 04:19:58;;;;;;;;;;;;;;;;;;5072975;28;849;-70
2022/08/01 04:22:25;;;;;;;;;;;;;;;;;;5072883;28;957;-70
2022/08/01 04:24:53;;;;;;;;;;;;;;;;;;5073061;28;1383;-70
2022/08/01 04:27:20;;;;;;;;;;;;;;;;;;5072915;28;1330;-71
2022/08/01 04:29:46;;;;;;;;;;;;;;;;;;5071440;28;1922;-72
2022/08/01 04:32:12;;;;;;;;;;;;;;;;;;5071964;28;1222;-71
2022/08/01 04:34:39;;;;;;;;;;;;;;;;;;5072275;28;1365;-70
2022/08/01 04:37:06;;;;;;;;;;;;;;;;;;5072385;28;1305;-70
2022/08/01 04:39:33;;;;;;;;;;;;;;;;;;5072307;28;1290;-70
2022/08/01 04:42:00;;;;;;;;;;;;;;;;;;5069373;28;1802;-71
2022/08/01 04:44:27;;;;;;;;;;;;;;;;;;5068363;28;1974;-70
2022/08/01 04:46:54;;;;;;;;;;;;;;;;;;5071961;28;1254;-70
2022/08/01 04:49:20;;;;;;;;;;;;;;;;;;5071954;28;1346;-71
2022/08/01 04:51:57;;;;;;;;;;;;;;;;;;5071839;28;1906;-69
2022/08/01 04:54:23;;;;;;;;;;;;;;;;;;5069508;28;1498;-71
2022/08/01 04:56:50;;;;;;;;;;;;;;;;;;5071886;28;1406;-70
2022/08/01 05:02:01;;;;;;;;;;;;;;;;;;5070569;28;1363;-70
2022/08/01 05:04:27;;;;;;;;;;;;;;;;;;5069125;28;1407;-70
2022/08/01 05:06:53;;;;;;;;;;;;;;;;;;5071779;28;1250;-70
2022/08/01 05:09:20;;;;;;;;;;;;;;;;;;5071511;28;1234;-70
2022/08/01 05:11:46;;;;;;;;;;;;;;;;;;5069788;28;1973;-71
2022/08/01 05:14:14;;;;;;;;;;;;;;;;;;5069281;28;1408;-70
2022/08/01 05:16:41;;;;;;;;;;;;;;;;;;5071790;28;1358;-70
2022/08/01 05:19:08;;;;;;;;;;;;;;;;;;5071039;28;1127;-71
2022/08/01 05:21:34;;;;;;;;;;;;;;;;;;5071618;28;1099;-70
2022/08/01 05:24:00;;;;;;;;;;;;;;;;;;5071320;28;1411;-71
2022/08/01 05:26:26;;;;;;;;;;;;;;;;;;5070468;28;1036;-70
2022/08/01 05:28:53;;;;;;;;;;;;;;;;;;5071810;28;1068;-70
2022/08/01 05:31:20;;;;;;;;;;;;;;;;;;5071563;28;1967;-70
2022/08/01 05:33:46;;;;;;;;;;;;;;;;;;5070254;28;1381;-70
2022/08/01 05:36:12;;;;;;;;;;;;;;;;;;5071658;28;924;-70
2022/08/01 05:38:39;;;;;;;;;;;;;;;;;;5071760;28;1126;-70
2022/08/01 05:41:05;;;;;;;;;;;;;;;;;;5071370;28;1078;-70
2022/08/01 05:43:31;;;;;;;;;;;;;;;;;;5070741;28;1341;-70
2022/08/01 05:45:58;;;;;;;;;;;;;;;;;;5071221;28;1179;-70
2022/08/01 05:48:26;;;;;;;;;;;;;;;;;;5071553;28;820;-70
2022/08/01 05:50:52;;;;;;;;;;;;;;;;;;5070961;28;1984;-70
2022/08/01 05:53:18;;;;;;;;;;;;;;;;;;5070794;28;1395;-70
2022/08/01 05:55:44;;;;;;;;;;;;;;;;;;5071498;28;1082;-71
2022/08/01 05:58:10;;;;;;;;;;;;;;;;;;5070872;28;754;-71
2022/08/01 06:00:36;;;;;;;;;;;;;;;;;;5070907;28;1022;-70
2022/08/01 06:03:03;;;;;;;;;;;;;;;;;;5070691;28;1258;-71
2022/08/01 06:05:30;;;;;;;;;;;;;;;;;;5071210;28;1076;-70
2022/08/01 06:07:57;;;;;;;;;;;;;;;;;;5071068;28;794;-71
2022/08/01 06:10:24;;;;;;;;;;;;;;;;;;5071014;28;1918;-70
2022/08/01 06:12:50;;;;;;;;;;;;;;;;;;5070817;28;1400;-71
2022/08/01 06:15:16;;;;;;;;;;;;;;;;;;5069775;28;1152;-71
2022/08/01 06:17:42;;;;;;;;;;;;;;;;;;5070905;28;1063;-72
2022/08/01 06:20:09;;;;;;;;;;;;;;;;;;5071052;28;1075;-71
2022/08/01 06:22:36;;;;;;;;;;;;;;;;;;5067887;28;1459;-71
2022/08/01 06:25:03;;;;;;;;;;;;;;;;;;5070337;28;1213;-72
2022/08/01 06:27:29;;;;;;;;;;;;;;;;;;5069996;28;906;-71
2022/08/01 06:29:56;;;;;;;;;;;;;;;;;;5069864;28;1055;-70
2022/08/01 06:32:23;;;;;;;;;;;;;;;;;;5068546;28;1917;-71
2022/08/01 06:34:49;;;;;;;;;;;;;;;;;;5070148;28;1366;-71
2022/08/01 06:37:15;;;;;;;;;;;;;;;;;;5069745;28;1223;-71
2022/08/01 06:39:43;;;;;;;;;;;;;;;;;;5068679;28;1159;-70
2022/08/01 06:42:09;;;;;;;;;;;;;;;;;;5069551;28;912;-71
2022/08/01 06:44:36;;;;;;;;;;;;;;;;;;5068705;28;1861;-70
2022/08/01 06:47:02;;;;;;;;;;;;;;;;;;5069219;28;1137;-70
2022/08/01 06:49:28;;;;;;;;;;;;;;;;;;5069833;28;1014;-70
2022/08/01 06:51:54;;;;;;;;;;;;;;;;;;5069290;28;1918;-70
2022/08/01 06:54:21;;;;;;;;;;;;;;;;;;5069621;28;1407;-70
2022/08/01 06:56:48;;;;;;;;;;;;;;;;;;5068126;28;1169;-71
2022/08/01 06:59:14;;;;;;;;;;;;;;;;;;5069503;28;1129;-71
2022/08/01 07:01:40;;;;;;;;;;;;;;;;;;5069589;28;1071;-71
2022/08/01 07:04:07;;;;;;;;;;;;;;;;;;5069269;28;1317;-71
2022/08/01 07:06:33;;;;;;;;;;;;;;;;;;5069409;28;1081;-71
2022/08/01 07:09:00;;;;;;;;;;;;;;;;;;5068996;28;1122;-71
2022/08/01 07:11:26;;;;;;;;;;;;;;;;;;5068501;28;1975;-71
2022/08/01 07:13:54;;;;;;;;;;;;;;;;;;5069001;28;1351;-71
2022/08/01 07:16:20;;;;;;;;;;;;;;;;;;5067726;28;1135;-71
2022/08/01 07:18:46;;;;;;;;;;;;;;;;;;5063705;28;1518;-70
2022/08/01 07:21:13;;;;;;;;;;;;;;;;;;5048607;28;1055;-71
2022/08/01 07:23:39;;;;;;;;;;;;;;;;;;5048748;28;1332;-71
2022/08/01 07:26:06;;;;;;;;;;;;;;;;;;5048876;28;1004;-72
2022/08/01 07:28:32;;;;;;;;;;;;;;;;;;5049444;28;786;-71
2022/08/01 07:31:00;;;;;;;;;;;;;;;;;;5048421;28;1965;-70
2022/08/01 07:33:26;;;;;;;;;;;;;;;;;;5048671;28;1333;-71
2022/08/01 07:35:52;;;;;;;;;;;;;;;;;;5048975;28;846;-71
2022/08/01 07:38:18;;;;;;;;;;;;;;;;;;5048751;28;1071;-71
2022/08/01 07:40:44;;;;;;;;;;;;;;;;;;5049061;28;1146;-70
2022/08/01 07:43:11;;;;;;;;;;;;;;;;;;5052236;28;1317;-70
2022/08/01 07:45:37;;;;;;;;;;;;;;;;;;5052901;28;1012;-70
2022/08/01 07:48:05;;;;;;;;;;;;;;;;;;5053823;28;1212;-70
2022/08/01 07:50:31;;;;;;;;;;;;;;;;;;5092631;28;1059;-71
2022/08/01 07:52:58;;;;;;;;;;;;;;;;;;5092171;28;2001;-70
2022/08/01 07:55:24;;;;;;;;;;;;;;;;;;5091688;28;1351;-70
2022/08/01 07:57:50;;;;;;;;;;;;;;;;;;5091605;28;1206;-70
2022/08/01 08:00:17;;;;;;;;;;;;;;;;;;5106495;22;3509;-75
2022/08/01 08:02:43;;;;;;;;;;;;;;;;;;5091867;28;1079;-75
2022/08/01 08:05:11;;;;;;;;;;;;;;;;;;5092649;28;1093;-75
2022/08/01 08:07:37;;;;;;;;;;;;;;;;;;5092202;28;1378;-75
2022/08/01 08:10:04;;;;;;;;;;;;;;;;;;5074258;28;1407;-75
2022/08/01 08:12:30;;;;;;;;;;;;;;;;;;5092643;28;1917;-75
2022/08/01 08:14:58;;;;;;;;;;;;;;;;;;5092927;28;1115;-76
2022/08/01 08:17:24;;;;;;;;;;;;;;;;;;5092643;28;1052;-75
2022/08/01 08:19:50;;;;;;;;;;;;;;;;;;5092668;28;1404;-75
2022/08/01 08:22:18;;;;;;;;;;;;;;;;;;5092304;28;759;-74
2022/08/01 08:24:44;;;;;;;;;;;;;;;;;;5092624;28;995;-75
2022/08/01 08:27:11;;;;;;;;;;;;;;;;;;5091850;28;1185;-76
2022/08/01 08:29:37;;;;;;;;;;;;;;;;;;5092270;28;873;-76
2022/08/01 08:32:03;;;;;;;;;;;;;;;;;;5073569;28;1983;-75
2022/08/01 08:34:30;;;;;;;;;;;;;;;;;;5074613;28;1027;-76
2022/08/01 08:36:57;;;;;;;;;;;;;;;;;;5092302;28;782;-75
2022/08/01 08:39:24;;;;;;;;;;;;;;;;;;5092207;28;1055;-75
2022/08/01 08:41:51;;;;;;;;;;;;;;;;;;5091949;28;1335;-75
2022/08/01 08:44:17;;;;;;;;;;;;;;;;;;5073638;28;1345;-74
2022/08/01 08:46:44;;;;;;;;;;;;;;;;;;5092197;28;687;-75
2022/08/01 08:49:10;;;;;;;;;;;;;;;;;;5091707;28;1091;-75
2022/08/01 08:51:38;;;;;;;;;;;;;;;;;;5091480;28;1910;-75
2022/08/01 08:54:05;;;;;;;;;;;;;;;;;;5090605;28;1118;-75
2022/08/01 08:56:33;;;;;;;;;;;;;;;;;;5092401;28;1007;-76
2022/08/01 08:59:00;;;;;;;;;;;;;;;;;;5069652;28;1499;-75
2022/08/01 09:01:26;;;;;;;;;;;;;;;;;;5070953;28;1309;-75
2022/08/01 09:03:52;;;;;;;;;;;;;;;;;;5071226;28;953;-73
2022/08/01 09:06:18;;;;;;;;;;;;;;;;;;5071242;28;1142;-74
2022/08/01 09:08:44;;;;;;;;;;;;;;;;;;5071686;28;1120;-75
2022/08/01 09:11:11;;;;;;;;;;;;;;;;;;5071352;28;1331;-75
2022/08/01 09:13:38;;;;;;;;;;;;;;;;;;5070907;28;1914;-74
2022/08/01 09:16:04;;;;;;;;;;;;;;;;;;5071135;28;782;-74
2022/08/01 09:18:32;;;;;;;;;;;;;;;;;;5071315;28;1008;-75
2022/08/01 09:21:08;;;;;;;;;;;;;;;;;;5090346;28;1519;-76
2022/08/01 09:23:34;;;;;;;;;;;;;;;;;;5073280;28;925;-74
2022/08/01 09:26:01;;;;;;;;;;;;;;;;;;5090851;28;1055;-75
2022/08/01 09:28:27;;;;;;;;;;;;;;;;;;5091093;28;965;-76
2022/08/01 09:30:55;;;;;;;;;;;;;;;;;;5090235;28;1492;-75
2022/08/01 09:33:21;;;;;;;;;;;;;;;;;;5090766;28;1921;-75
2022/08/01 09:35:47;;;;;;;;;;;;;;;;;;5090865;28;1123;-75
2022/08/01 09:38:15;;;;;;;;;;;;;;;;;;5090329;28;849;-75
2022/08/01 09:40:59;;;;;;;;;;;;;;;;;;5091039;28;1362;-74
2022/08/01 09:43:26;;;;;;;;;;;;;;;;;;5091178;28;960;-75
2022/08/01 09:45:52;;;;;;;;;;;;;;;;;;5090166;28;1251;-75
2022/08/01 09:48:20;;;;;;;;;;;;;;;;;;5090107;28;1247;-75
2022/08/01 09:50:46;;;;;;;;;;;;;;;;;;5072918;28;1277;-76
2022/08/01 09:53:13;;;;;;;;;;;;;;;;;;5090606;28;1910;-76
2022/08/01 09:55:39;;;;;;;;;;;;;;;;;;5091015;28;671;-75
2022/08/01 09:58:06;;;;;;;;;;;;;;;;;;5073042;28;1208;-74
2022/08/01 10:00:32;;;;;;;;;;;;;;;;;;5090759;28;1312;-75
2022/08/01 10:02:59;;;;;;;;;;;;;;;;;;5090426;28;929;-74
2022/08/01 10:05:33;;;;;;;;;;;;;;;;;;5089601;28;889;-74
2022/08/01 10:08:00;;;;;;;;;;;;;;;;;;5089766;28;972;-74
2022/08/01 10:10:26;;;;;;;;;;;;;;;;;;5090551;28;1380;-75
2022/08/01 10:12:53;;;;;;;;;;;;;;;;;;5071989;28;1993;-74
2022/08/01 10:15:20;;;;;;;;;;;;;;;;;;5084796;28;2130;-73
2022/08/01 10:17:47;;;;;;;;;;;;;;;;;;5085778;28;1150;-74
2022/08/01 10:20:13;;;;;;;;;;;;;;;;;;5090481;28;1375;-75
2022/08/01 10:22:41;;;;;;;;;;;;;;;;;;5090517;28;888;-74
2022/08/01 10:25:07;;;;;;;;;;;;;;;;;;5090558;28;1105;-75
2022/08/01 10:27:34;;;;;;;;;;;;;;;;;;5090311;28;841;-75
2022/08/01 10:30:03;;;;;;;;;;;;;;;;;;5089852;28;1322;-74
2022/08/01 10:32:29;;;;;;;;;;;;;;;;;;5089934;28;1961;-75
2022/08/01 10:34:56;;;;;;;;;;;;;;;;;;5090652;28;925;-74
2022/08/01 10:37:22;;;;;;;;;;;;;;;;;;5090242;28;1062;-75
2022/08/01 10:39:49;;;;;;;;;;;;;;;;;;5089924;28;1321;-74
2022/08/01 10:42:15;;;;;;;;;;;;;;;;;;5089818;28;1126;-75
2022/08/01 10:44:42;;;;;;;;;;;;;;;;;;5086074;28;2033;-75
2022/08/01 10:47:09;;;;;;;;;;;;;;;;;;5084412;28;1649;-75
2022/08/01 10:49:36;;;;;;;;;;;;;;;;;;5089624;28;1176;-75
2022/08/01 10:52:03;;;;;;;;;;;;;;;;;;5089788;28;1977;-74
2022/08/01 10:54:29;;;;;;;;;;;;;;;;;;5072073;28;1379;-74
2022/08/01 10:56:57;;;;;;;;;;;;;;;;;;5089988;28;778;-74
2022/08/01 10:59:24;;;;;;;;;;;;;;;;;;5089158;28;1439;-75
2022/08/01 11:01:57;;;;;;;;;;;;;;;;;;5089280;28;1268;-75
2022/08/01 11:04:27;;;;;;;;;;;;;;;;;;5090030;28;1114;-76
2022/08/01 11:06:54;;;;;;;;;;;;;;;;;;5089150;28;1385;-76
2022/08/01 11:09:24;;;;;;;;;;;;;;;;;;5089267;28;1011;-75
2022/08/01 11:11:59;;;;;;;;;;;;;;;;;;5089642;28;1384;-75
2022/08/01 11:14:25;;;;;;;;;;;;;;;;;;5089830;28;941;-76
2022/08/01 11:16:52;;;;;;;;;;;;;;;;;;5091146;28;1514;-76
2022/08/01 11:19:18;;;;;;;;;;;;;;;;;;5093478;28;1063;-75
2022/08/01 11:22:00;;;;;;;;;;;;;;;;;;5093151;28;1363;-75
2022/08/01 11:24:45;;;;;;;;;;;;;;;;;;5093661;28;1103;-74
2022/08/01 11:27:17;;;;;;;;;;;;;;;;;;5093438;28;853;-75
2022/08/01 11:29:43;;;;;;;;;;;;;;;;;;5092968;28;1348;-73
2022/08/01 11:32:25;;;;;;;;;;;;;;;;;;5074523;28;1906;-75
2022/08/01 11:34:56;;;;;;;;;;;;;;;;;;5093686;28;1520;-76
2022/08/01 11:37:25;;;;;;;;;;;;;;;;;;5093199;28;1059;-75
2022/08/01 11:40:06;;;;;;;;;;;;;;;;;;5092894;28;1394;-75
2022/08/01 11:42:34;;;;;;;;;;;;;;;;;;5091856;28;1201;-75
2022/08/01 11:45:00;;;;;;;;;;;;;;;;;;5075042;28;1180;-75
2022/08/01 11:47:43;;;;;;;;;;;;;;;;;;5093123;28;818;-74
2022/08/01 11:50:14;;;;;;;;;;;;;;;;;;5093000;28;1408;-75
2022/08/01 11:52:42;;;;;;;;;;;;;;;;;;5092423;28;2034;-76
2022/08/01 11:55:09;;;;;;;;;;;;;;;;;;5089934;28;1898;-75
2022/08/01 11:57:37;;;;;;;;;;;;;;;;;;5093037;28;1506;-75
2022/08/01 12:00:05;;;;;;;;;;;;;;;;;;5092160;28;1317;-75
2022/08/01 12:02:39;;;;;;;;;;;;;;;;;;5092568;28;1341;-76
2022/08/01 12:05:06;;;;;;;;;;;;;;;;;;5093366;28;1064;-74
2022/08/01 12:07:33;;;;;;;;;;;;;;;;;;5092475;28;1075;-75
2022/08/01 12:10:01;;;;;;;;;;;;;;;;;;5092634;28;1297;-74
2022/08/01 12:12:27;;;;;;;;;;;;;;;;;;5092507;28;1973;-74
2022/08/01 12:14:55;;;;;;;;;;;;;;;;;;5092367;28;2238;-73
2022/08/01 12:17:28;;;;;;;;;;;;;;;;;;5092381;28;1141;-75
2022/08/01 12:19:54;;;;;;;;;;;;;;;;;;5092161;28;1384;-74
2022/08/01 12:22:22;;;;;;;;;;;;;;;;;;5092422;28;1015;-74
2022/08/01 12:24:48;;;;;;;;;;;;;;;;;;5074831;28;845;-74
2022/08/01 12:27:24;;;;;;;;;;;;;;;;;;5073580;28;1521;-74
2022/08/01 12:29:50;;;;;;;;;;;;;;;;;;5090929;28;1361;-74
2022/08/01 12:32:25;;;;;;;;;;;;;;;;;;5091716;28;1318;-75
2022/08/01 12:34:52;;;;;;;;;;;;;;;;;;5082165;28;1152;-74
2022/08/01 12:37:18;;;;;;;;;;;;;;;;;;5071611;28;924;-75
2022/08/01 12:39:45;;;;;;;;;;;;;;;;;;5071322;28;1258;-73
2022/08/01 12:42:11;;;;;;;;;;;;;;;;;;5071348;28;924;-74
2022/08/01 12:44:37;;;;;;;;;;;;;;;;;;5071672;28;1071;-75
2022/08/01 12:47:03;;;;;;;;;;;;;;;;;;5072012;28;1059;-75
2022/08/01 12:49:31;;;;;;;;;;;;;;;;;;5071299;28;1044;-74
2022/08/01 12:51:57;;;;;;;;;;;;;;;;;;5085341;28;1462;-75
2022/08/01 12:54:25;;;;;;;;;;;;;;;;;;5091896;28;1914;-74
2022/08/01 12:56:52;;;;;;;;;;;;;;;;;;5092102;28;1134;-74
2022/08/01 12:59:24;;;;;;;;;;;;;;;;;;5091483;28;968;-74
2022/08/01 13:01:50;;;;;;;;;;;;;;;;;;5073060;28;1315;-74
2022/08/01 13:04:17;;;;;;;;;;;;;;;;;;5091978;28;1130;-74
2022/08/01 13:06:44;;;;;;;;;;;;;;;;;;5091732;28;1099;-74
2022/08/01 13:09:11;;;;;;;;;;;;;;;;;;5091236;28;945;-75
2022/08/01 13:11:37;;;;;;;;;;;;;;;;;;5090709;28;1342;-75
2022/08/01 13:14:03;;;;;;;;;;;;;;;;;;5091341;28;1910;-74
2022/08/01 13:16:30;;;;;;;;;;;;;;;;;;5091518;28;1070;-74
2022/08/01 13:18:57;;;;;;;;;;;;;;;;;;5091272;28;758;-74
2022/08/01 13:21:24;;;;;;;;;;;;;;;;;;5090449;28;1535;-74
2022/08/01 13:24:06;;;;;;;;;;;;;;;;;;5091484;28;932;-74
2022/08/01 13:26:39;;;;;;;;;;;;;;;;;;5091268;28;1133;-74
2022/08/01 13:29:06;;;;;;;;;;;;;;;;;;5090874;28;1079;-74
2022/08/01 13:31:32;;;;;;;;;;;;;;;;;;5090232;28;1321;-74
2022/08/01 13:33:59;;;;;;;;;;;;;;;;;;5091266;28;1913;-74
2022/08/01 13:36:26;;;;;;;;;;;;;;;;;;5090942;28;1118;-74
2022/08/01 13:41:38;;;;;;;;;;;;;;;;;;5090287;28;1375;-74
2022/08/01 13:44:04;;;;;;;;;;;;;;;;;;5090793;28;806;-74
2022/08/01 13:46:31;;;;;;;;;;;;;;;;;;5072359;28;1262;-75
2022/08/01 13:48:57;;;;;;;;;;;;;;;;;;5090555;28;1220;-75
2022/08/01 13:51:23;;;;;;;;;;;;;;;;;;5089989;28;1310;-75
2022/08/01 13:53:49;;;;;;;;;;;;;;;;;;5090517;28;1906;-75
2022/08/01 13:56:17;;;;;;;;;;;;;;;;;;5090795;28;1067;-74
2022/08/01 13:58:44;;;;;;;;;;;;;;;;;;5090427;28;861;-74
2022/08/01 14:03:44;;;;;;;;;;;;;;;;;;5003699;28;2019;-71
2022/08/01 14:06:10;;;;;;;;;;;;;;;;;;5028286;28;1513;-71
2022/08/01 14:08:37;;;;;;;;;;;;;;;;;;5021426;28;1133;-70
2022/08/01 14:11:03;;;;;;;;;;;;;;;;;;5029604;28;1134;-71
2022/08/01 14:13:29;;;;;;;;;;;;;;;;;;5027421;28;1951;-71
2022/08/01 14:15:56;;;;;;;;;;;;;;;;;;5018065;28;1213;-71
2022/08/01 14:18:23;;;;;;;;;;;;;;;;;;5011133;28;1126;-70
2022/08/01 14:20:49;;;;;;;;;;;;;;;;;;5002121;28;1221;-70
2022/08/01 14:23:15;;;;;;;;;;;;;;;;;;4997681;28;1395;-70
2022/08/01 14:25:41;;;;;;;;;;;;;;;;;;4999472;28;1324;-71
2022/08/01 14:28:07;;;;;;;;;;;;;;;;;;5000107;28;1315;-71
2022/08/01 14:30:34;;;;;;;;;;;;;;;;;;4998048;28;1243;-71
2022/08/01 14:33:01;;;;;;;;;;;;;;;;;;5006092;28;1980;-71
2022/08/01 14:35:28;;;;;;;;;;;;;;;;;;5009476;28;1063;-71
2022/08/01 14:37:54;;;;;;;;;;;;;;;;;;5004469;28;1287;-71
2022/08/01 14:40:20;;;;;;;;;;;;;;;;;;4997576;28;1252;-71
2022/08/01 14:42:46;;;;;;;;;;;;;;;;;;4991791;28;1402;-72
2022/08/01 14:45:13;;;;;;;;;;;;;;;;;;4989920;28;1139;-71
2022/08/01 14:47:39;;;;;;;;;;;;;;;;;;4972166;28;1167;-71
2022/08/01 14:50:08;;;;;;;;;;;;;;;;;;4989217;28;1395;-71
2022/08/01 14:52:34;;;;;;;;;;;;;;;;;;4993186;28;1307;-70
2022/08/01 14:55:00;;;;;;;;;;;;;;;;;;4993932;28;1919;-71
2022/08/01 14:57:27;;;;;;;;;;;;;;;;;;4993603;28;1134;-71
2022/08/01 14:59:53;;;;;;;;;;;;;;;;;;4993672;28;772;-71
2022/08/01 15:02:19;;;;;;;;;;;;;;;;;;4993069;28;1276;-71
2022/08/01 15:04:45;;;;;;;;;;;;;;;;;;4993781;28;1069;-71
2022/08/01 15:07:13;;;;;;;;;;;;;;;;;;4993897;28;1064;-71
2022/08/01 15:09:39;;;;;;;;;;;;;;;;;;4992299;28;1160;-70
2022/08/01 15:12:06;;;;;;;;;;;;;;;;;;4992913;28;1382;-71
2022/08/01 15:14:50;;;;;;;;;;;;;;;;;;4995903;28;1971;-72
2022/08/01 15:17:17;;;;;;;;;;;;;;;;;;4993540;28;1079;-71
2022/08/01 15:19:43;;;;;;;;;;;;;;;;;;5001372;28;1213;-72
2022/08/01 15:22:09;;;;;;;;;;;;;;;;;;5001742;28;1346;-72
2022/08/01 15:24:37;;;;;;;;;;;;;;;;;;4994449;28;1299;-71
2022/08/01 15:27:03;;;;;;;;;;;;;;;;;;4991981;28;1112;-71
2022/08/01 15:29:29;;;;;;;;;;;;;;;;;;4993685;28;918;-72
2022/08/01 15:31:56;;;;;;;;;;;;;;;;;;4992266;28;1431;-72
2022/08/01 15:34:22;;;;;;;;;;;;;;;;;;4993052;28;1968;-72
2022/08/01 15:36:48;;;;;;;;;;;;;;;;;;4992899;28;1147;-71
2022/08/01 15:39:16;;;;;;;;;;;;;;;;;;4993104;28;1079;-72
2022/08/01 15:41:43;;;;;;;;;;;;;;;;;;4991554;28;1355;-72
2022/08/01 15:44:09;;;;;;;;;;;;;;;;;;4992860;28;965;-72
2022/08/01 15:46:35;;;;;;;;;;;;;;;;;;4993027;28;1080;-72
2022/08/01 15:49:02;;;;;;;;;;;;;;;;;;4992898;28;842;-72
2022/08/01 15:51:29;;;;;;;;;;;;;;;;;;4992351;28;1352;-72
2022/08/01 15:53:55;;;;;;;;;;;;;;;;;;4992255;28;1911;-72
2022/08/01 15:56:21;;;;;;;;;;;;;;;;;;4991630;28;1252;-72
2022/08/01 15:58:48;;;;;;;;;;;;;;;;;;4992515;28;1203;-72
2022/08/01 16:01:15;;;;;;;;;;;;;;;;;;5011285;28;1176;-72
2022/08/01 16:03:41;;;;;;;;;;;;;;;;;;5002536;28;1388;-72
2022/08/01 16:06:07;;;;;;;;;;;;;;;;;;5003643;28;1252;-72
2022/08/01 16:08:33;;;;;;;;;;;;;;;;;;5000625;28;1279;-72
2022/08/01 16:11:00;;;;;;;;;;;;;;;;;;5013313;28;866;-71
2022/08/01 16:13:26;;;;;;;;;;;;;;;;;;5002818;28;1984;-72
2022/08/01 16:15:53;;;;;;;;;;;;;;;;;;5001844;28;2052;-72
2022/08/01 16:18:19;;;;;;;;;;;;;;;;;;5003753;28;1313;-72
2022/08/01 16:20:46;;;;;;;;;;;;;;;;;;5001742;28;1240;-72
2022/08/01 16:23:12;;;;;;;;;;;;;;;;;;5002213;28;1978;-72
2022/08/01 16:25:38;;;;;;;;;;;;;;;;;;4982404;28;1705;-71
2022/08/01 16:28:04;;;;;;;;;;;;;;;;;;5001326;28;1080;-72
2022/08/01 16:30:31;;;;;;;;;;;;;;;;;;5011727;28;2484;-72
2022/08/01 16:32:58;;;;;;;;;;;;;;;;;;4995332;28;1384;-71
2022/08/01 16:35:25;;;;;;;;;;;;;;;;;;4992091;28;1981;-72
2022/08/01 16:37:51;;;;;;;;;;;;;;;;;;4993123;28;1008;-71
2022/08/01 16:40:17;;;;;;;;;;;;;;;;;;4993441;28;1075;-71
2022/08/01 16:42:43;;;;;;;;;;;;;;;;;;4992715;28;1306;-72
2022/08/01 16:45:11;;;;;;;;;;;;;;;;;;4994993;28;2204;-70
2022/08/01 16:47:37;;;;;;;;;;;;;;;;;;5005467;28;1244;-71
2022/08/01 16:50:05;;;;;;;;;;;;;;;;;;5002270;28;1206;-71
2022/08/01 16:52:31;;;;;;;;;;;;;;;;;;4995187;28;1474;-71
2022/08/01 16:54:57;;;;;;;;;;;;;;;;;;4992730;28;1919;-72
2022/08/01 16:57:24;;;;;;;;;;;;;;;;;;4991984;28;1471;-72
2022/08/01 16:59:50;;;;;;;;;;;;;;;;;;4990795;28;1609;-71
2022/08/01 17:02:16;;;;;;;;;;;;;;;;;;4990546;28;1338;-72
2022/08/01 17:04:42;;;;;;;;;;;;;;;;;;5006662;28;1121;-72
2022/08/01 17:07:10;;;;;;;;;;;;;;;;;;5007132;28;1484;-71
2022/08/01 17:09:36;;;;;;;;;;;;;;;;;;5010450;28;1131;-71
2022/08/01 17:12:02;;;;;;;;;;;;;;;;;;5009866;28;1340;-71